Hicksville, Virginia
Current Conditions -  °F | °C
As of 3:52 AM on Friday 24 Oct 2014 (Local Time) from KBLF Reporting Station
Clear Clear  
Wind Chill: 33°   Ceiling: Unl
Heat Index: 39°   Visibility: 9mi
Dew Point: 36°   Wind: 8mph
Humidity: 89%   Direction: 260°W
Pressure: 30.11"   Gusts: NA
Location:  37.1593°N, 81.1986°W
Report Text: KBLF 240752Z AUTO 26007KT 9SM CLR 04/02 A3011 RMK AO2 SLP195 T00390022
Loading
Personal Weather Stations






























Interactive Weather Map New forecast layout! Learn more

10-Day Weather Forecast

Advertisements
Track Severe Weather on mobile